sensor_id;sensor_type;location;lat;lon;timestamp;pressure;altitude;pressure_sealevel;temperature;humidity
15489;BME280;7846;48.830;9.116;2022-07-10T00:00:26;98498.50;;;20.75;69.83
15489;BME280;7846;48.830;9.116;2022-07-10T00:03:11;98496.66;;;20.69;69.93
15489;BME280;7846;48.830;9.116;2022-07-10T00:05:55;98484.88;;;20.37;70.38
15489;BME280;7846;48.830;9.116;2022-07-10T00:08:40;98487.31;;;20.39;70.10
15489;BME280;7846;48.830;9.116;2022-07-10T00:11:28;98483.22;;;20.43;69.94
15489;BME280;7846;48.830;9.116;2022-07-10T00:14:12;98495.19;;;20.53;69.28
15489;BME280;7846;48.830;9.116;2022-07-10T00:16:56;98486.94;;;20.48;69.36
15489;BME280;7846;48.830;9.116;2022-07-10T00:19:40;98486.34;;;20.53;68.78
15489;BME280;7846;48.830;9.116;2022-07-10T00:22:25;98485.88;;;20.43;69.37
15489;BME280;7846;48.830;9.116;2022-07-10T00:25:12;98476.84;;;20.30;70.14
15489;BME280;7846;48.830;9.116;2022-07-10T00:27:58;98478.53;;;20.51;69.47
15489;BME280;7846;48.830;9.116;2022-07-10T00:30:41;98477.88;;;20.36;69.96
15489;BME280;7846;48.830;9.116;2022-07-10T00:33:27;98475.41;;;20.48;69.50
15489;BME280;7846;48.830;9.116;2022-07-10T00:36:12;98472.56;;;20.63;69.24
15489;BME280;7846;48.830;9.116;2022-07-10T00:38:56;98478.34;;;20.60;68.63
15489;BME280;7846;48.830;9.116;2022-07-10T00:41:41;98484.94;;;20.77;68.49
15489;BME280;7846;48.830;9.116;2022-07-10T00:44:27;98480.53;;;20.43;69.29
15489;BME280;7846;48.830;9.116;2022-07-10T00:47:11;98485.06;;;20.22;70.14
15489;BME280;7846;48.830;9.116;2022-07-10T00:49:57;98478.31;;;20.53;68.64
15489;BME280;7846;48.830;9.116;2022-07-10T00:52:44;98482.00;;;20.45;68.85
15489;BME280;7846;48.830;9.116;2022-07-10T00:55:30;98487.72;;;20.36;68.68
15489;BME280;7846;48.830;9.116;2022-07-10T00:58:15;98480.75;;;20.21;69.11
15489;BME280;7846;48.830;9.116;2022-07-10T01:00:59;98485.44;;;20.19;68.98
15489;BME280;7846;48.830;9.116;2022-07-10T01:03:44;98477.00;;;20.09;69.39
15489;BME280;7846;48.830;9.116;2022-07-10T01:06:43;98475.56;;;20.20;68.86
15489;BME280;7846;48.830;9.116;2022-07-10T01:09:28;98470.63;;;20.17;68.76
15489;BME280;7846;48.830;9.116;2022-07-10T01:12:14;98466.13;;;20.11;69.13
15489;BME280;7846;48.830;9.116;2022-07-10T01:15:02;98471.63;;;19.96;69.12
15489;BME280;7846;48.830;9.116;2022-07-10T01:17:47;98470.75;;;19.82;69.07
15489;BME280;7846;48.830;9.116;2022-07-10T01:20:32;98471.19;;;19.92;69.10
15489;BME280;7846;48.830;9.116;2022-07-10T01:23:20;98472.94;;;19.65;69.44
15489;BME280;7846;48.830;9.116;2022-07-10T01:26:04;98464.63;;;20.01;68.57
15489;BME280;7846;48.830;9.116;2022-07-10T01:28:52;98468.50;;;19.86;68.78
15489;BME280;7846;48.830;9.116;2022-07-10T01:31:36;98469.19;;;20.21;68.09
15489;BME280;7846;48.830;9.116;2022-07-10T01:34:20;98470.84;;;20.15;68.30
15489;BME280;7846;48.830;9.116;2022-07-10T01:37:04;98463.63;;;20.02;68.67
15489;BME280;7846;48.830;9.116;2022-07-10T01:39:48;98463.63;;;20.02;68.62
15489;BME280;7846;48.830;9.116;2022-07-10T01:42:32;98464.81;;;19.87;68.87
15489;BME280;7846;48.830;9.116;2022-07-10T01:45:23;98461.53;;;19.98;69.01
15489;BME280;7846;48.830;9.116;2022-07-10T01:48:10;98454.94;;;19.80;69.24
15489;BME280;7846;48.830;9.116;2022-07-10T01:50:56;98459.44;;;19.87;69.19
15489;BME280;7846;48.830;9.116;2022-07-10T01:53:40;98459.44;;;19.73;69.66
15489;BME280;7846;48.830;9.116;2022-07-10T01:56:24;98462.53;;;19.83;69.15
15489;BME280;7846;48.830;9.116;2022-07-10T01:59:09;98459.81;;;19.70;69.66
15489;BME280;7846;48.830;9.116;2022-07-10T02:01:52;98468.53;;;20.05;68.35
15489;BME280;7846;48.830;9.116;2022-07-10T02:04:37;98466.78;;;19.65;69.85
15489;BME280;7846;48.830;9.116;2022-07-10T02:07:28;98468.47;;;19.38;70.83
15489;BME280;7846;48.830;9.116;2022-07-10T02:10:12;98473.13;;;18.94;72.58
15489;BME280;7846;48.830;9.116;2022-07-10T02:12:56;98465.34;;;18.93;73.53
15489;BME280;7846;48.830;9.116;2022-07-10T02:15:40;98461.78;;;18.85;74.14
15489;BME280;7846;48.830;9.116;2022-07-10T02:18:26;98473.13;;;18.94;73.85
15489;BME280;7846;48.830;9.116;2022-07-10T02:21:10;98464.69;;;18.91;74.35
15489;BME280;7846;48.830;9.116;2022-07-10T02:23:54;98474.25;;;19.06;73.90
15489;BME280;7846;48.830;9.116;2022-07-10T02:26:38;98466.91;;;19.15;73.75
15489;BME280;7846;48.830;9.116;2022-07-10T02:29:24;98468.09;;;19.06;74.65
15489;BME280;7846;48.830;9.116;2022-07-10T02:32:08;98473.94;;;18.88;74.80
15489;BME280;7846;48.830;9.116;2022-07-10T02:34:56;98485.50;;;19.02;74.86
15489;BME280;7846;48.830;9.116;2022-07-10T02:37:40;98478.56;;;19.07;74.25
15489;BME280;7846;48.830;9.116;2022-07-10T02:40:24;98487.00;;;19.87;73.24
15489;BME280;7846;48.830;9.116;2022-07-10T02:43:08;98477.06;;;18.98;75.02
15489;BME280;7846;48.830;9.116;2022-07-10T02:45:52;98483.63;;;19.30;73.59
15489;BME280;7846;48.830;9.116;2022-07-10T02:48:35;98484.38;;;18.90;75.23
15489;BME280;7846;48.830;9.116;2022-07-10T02:51:19;98489.72;;;18.90;75.12
15489;BME280;7846;48.830;9.116;2022-07-10T02:54:04;98486.28;;;18.96;75.10
15489;BME280;7846;48.830;9.116;2022-07-10T02:56:48;98487.25;;;18.88;75.46
15489;BME280;7846;48.830;9.116;2022-07-10T02:59:32;98492.91;;;18.78;75.71
15489;BME280;7846;48.830;9.116;2022-07-10T03:02:17;98490.06;;;18.80;75.84
15489;BME280;7846;48.830;9.116;2022-07-10T03:05:01;98496.63;;;18.77;76.08
15489;BME280;7846;48.830;9.116;2022-07-10T03:07:45;98495.94;;;19.25;74.52
15489;BME280;7846;48.830;9.116;2022-07-10T03:10:29;98493.75;;;19.07;74.61
15489;BME280;7846;48.830;9.116;2022-07-10T03:13:13;98486.53;;;19.01;75.23
15489;BME280;7846;48.830;9.116;2022-07-10T03:16:00;98492.00;;;18.93;75.07
15489;BME280;7846;48.830;9.116;2022-07-10T03:18:44;98493.91;;;19.33;73.92
15489;BME280;7846;48.830;9.116;2022-07-10T03:21:29;98491.22;;;19.27;73.81
15489;BME280;7846;48.830;9.116;2022-07-10T03:24:16;98493.41;;;19.17;74.09
15489;BME280;7846;48.830;9.116;2022-07-10T03:26:59;98494.72;;;18.99;74.54
15489;BME280;7846;48.830;9.116;2022-07-10T03:29:44;98495.16;;;19.38;73.86
15489;BME280;7846;48.830;9.116;2022-07-10T03:32:32;98491.16;;;19.20;73.90
15489;BME280;7846;48.830;9.116;2022-07-10T03:35:16;98491.47;;;19.04;74.97
15489;BME280;7846;48.830;9.116;2022-07-10T03:38:03;98493.38;;;18.82;75.96
15489;BME280;7846;48.830;9.116;2022-07-10T03:40:47;98500.31;;;18.76;75.81
15489;BME280;7846;48.830;9.116;2022-07-10T03:43:32;98503.56;;;19.00;75.61
15489;BME280;7846;48.830;9.116;2022-07-10T03:46:15;98497.44;;;19.06;74.00
15489;BME280;7846;48.830;9.116;2022-07-10T03:49:01;98512.34;;;19.22;73.94
15489;BME280;7846;48.830;9.116;2022-07-10T03:51:47;98509.28;;;19.31;73.66
15489;BME280;7846;48.830;9.116;2022-07-10T03:54:31;98499.59;;;19.24;74.17
15489;BME280;7846;48.830;9.116;2022-07-10T03:57:15;98500.06;;;19.34;74.22
15489;BME280;7846;48.830;9.116;2022-07-10T04:00:26;98502.38;;;19.09;75.22
15489;BME280;7846;48.830;9.116;2022-07-10T04:03:10;98505.59;;;18.98;74.88
15489;BME280;7846;48.830;9.116;2022-07-10T04:05:54;98509.00;;;18.85;75.86
15489;BME280;7846;48.830;9.116;2022-07-10T04:08:38;98501.28;;;19.31;74.63
15489;BME280;7846;48.830;9.116;2022-07-10T04:11:22;98502.47;;;19.57;73.20
15489;BME280;7846;48.830;9.116;2022-07-10T04:14:06;98498.72;;;19.10;75.18
15489;BME280;7846;48.830;9.116;2022-07-10T04:16:50;98503.63;;;18.63;76.24
15489;BME280;7846;48.830;9.116;2022-07-10T04:19:34;98500.25;;;18.98;75.44
15489;BME280;7846;48.830;9.116;2022-07-10T04:22:19;98499.03;;;18.51;76.87
15489;BME280;7846;48.830;9.116;2022-07-10T04:25:04;98506.81;;;18.52;76.94
15489;BME280;7846;48.830;9.116;2022-07-10T04:27:49;98503.47;;;18.44;76.84
15489;BME280;7846;48.830;9.116;2022-07-10T04:30:36;98493.56;;;18.80;75.77
15489;BME280;7846;48.830;9.116;2022-07-10T04:33:20;98499.97;;;18.22;77.14
15489;BME280;7846;48.830;9.116;2022-07-10T04:36:05;98507.41;;;18.69;75.60
15489;BME280;7846;48.830;9.116;2022-07-10T04:38:52;98501.72;;;18.57;75.67
15489;BME280;7846;48.830;9.116;2022-07-10T04:41:36;98505.03;;;18.38;76.20
15489;BME280;7846;48.830;9.116;2022-07-10T04:44:20;98504.16;;;18.31;75.61
15489;BME280;7846;48.830;9.116;2022-07-10T04:47:05;98506.13;;;18.44;74.95
15489;BME280;7846;48.830;9.116;2022-07-10T04:49:49;98501.06;;;18.98;73.27
15489;BME280;7846;48.830;9.116;2022-07-10T04:52:33;98494.91;;;18.98;72.87
15489;BME280;7846;48.830;9.116;2022-07-10T04:55:17;98505.06;;;18.81;73.34
15489;BME280;7846;48.830;9.116;2022-07-10T04:58:01;98508.44;;;18.47;73.73
15489;BME280;7846;48.830;9.116;2022-07-10T05:00:45;98505.19;;;18.51;73.32
15489;BME280;7846;48.830;9.116;2022-07-10T05:03:30;98505.72;;;18.68;73.15
15489;BME280;7846;48.830;9.116;2022-07-10T05:06:14;98519.03;;;18.40;74.17
15489;BME280;7846;48.830;9.116;2022-07-10T05:08:58;98512.28;;;18.66;73.33
15489;BME280;7846;48.830;9.116;2022-07-10T05:11:43;98520.53;;;18.92;72.70
15489;BME280;7846;48.830;9.116;2022-07-10T05:14:30;98527.50;;;18.93;71.71
15489;BME280;7846;48.830;9.116;2022-07-10T05:17:15;98519.72;;;18.92;72.00
15489;BME280;7846;48.830;9.116;2022-07-10T05:19:59;98516.31;;;19.04;71.42
15489;BME280;7846;48.830;9.116;2022-07-10T05:22:43;98519.09;;;19.18;70.69
15489;BME280;7846;48.830;9.116;2022-07-10T05:25:27;98514.66;;;19.03;70.54
15489;BME280;7846;48.830;9.116;2022-07-10T05:28:14;98526.25;;;18.89;70.26
15489;BME280;7846;48.830;9.116;2022-07-10T05:30:58;98520.44;;;19.07;70.40
15489;BME280;7846;48.830;9.116;2022-07-10T05:33:45;98533.22;;;19.46;67.81
15489;BME280;7846;48.830;9.116;2022-07-10T05:36:29;98521.75;;;19.52;67.94
15489;BME280;7846;48.830;9.116;2022-07-10T05:39:14;98526.06;;;19.53;67.55
15489;BME280;7846;48.830;9.116;2022-07-10T05:41:59;98526.22;;;19.45;67.66
15489;BME280;7846;48.830;9.116;2022-07-10T05:44:43;98530.06;;;20.12;65.75
15489;BME280;7846;48.830;9.116;2022-07-10T05:47:28;98546.53;;;19.40;65.67
15489;BME280;7846;48.830;9.116;2022-07-10T05:50:15;98540.44;;;19.87;65.44
15489;BME280;7846;48.830;9.116;2022-07-10T05:52:59;98539.88;;;19.92;65.01
15489;BME280;7846;48.830;9.116;2022-07-10T05:55:43;98551.44;;;19.36;65.50
15489;BME280;7846;48.830;9.116;2022-07-10T05:58:29;98559.78;;;19.54;65.33
15489;BME280;7846;48.830;9.116;2022-07-10T06:01:13;98556.69;;;19.51;65.21
15489;BME280;7846;48.830;9.116;2022-07-10T06:03:57;98563.78;;;19.72;64.36
15489;BME280;7846;48.830;9.116;2022-07-10T06:06:41;98557.22;;;19.40;64.83
15489;BME280;7846;48.830;9.116;2022-07-10T06:09:25;98554.50;;;19.05;65.96
15489;BME280;7846;48.830;9.116;2022-07-10T06:12:09;98549.56;;;19.30;64.59
15489;BME280;7846;48.830;9.116;2022-07-10T06:14:56;98550.56;;;19.29;64.27
15489;BME280;7846;48.830;9.116;2022-07-10T06:17:40;98558.72;;;19.83;62.95
15489;BME280;7846;48.830;9.116;2022-07-10T06:20:25;98559.19;;;19.59;62.88
15489;BME280;7846;48.830;9.116;2022-07-10T06:23:09;98559.25;;;19.66;63.55
15489;BME280;7846;48.830;9.116;2022-07-10T06:25:53;98573.00;;;19.63;64.75
15489;BME280;7846;48.830;9.116;2022-07-10T06:28:37;98562.44;;;19.54;64.77
15489;BME280;7846;48.830;9.116;2022-07-10T06:31:22;98563.69;;;20.48;62.23
15489;BME280;7846;48.830;9.116;2022-07-10T06:34:06;98566.06;;;19.75;63.89
15489;BME280;7846;48.830;9.116;2022-07-10T06:36:50;98569.38;;;20.31;62.13
15489;BME280;7846;48.830;9.116;2022-07-10T06:39:34;98575.25;;;20.68;60.64
15489;BME280;7846;48.830;9.116;2022-07-10T06:42:18;98569.47;;;19.97;61.34
15489;BME280;7846;48.830;9.116;2022-07-10T06:45:06;98581.91;;;20.18;60.67
15489;BME280;7846;48.830;9.116;2022-07-10T06:47:50;98576.38;;;19.78;60.86
15489;BME280;7846;48.830;9.116;2022-07-10T06:50:40;98586.72;;;19.59;62.00
15489;BME280;7846;48.830;9.116;2022-07-10T06:53:24;98578.84;;;19.23;62.23
15489;BME280;7846;48.830;9.116;2022-07-10T06:56:11;98581.13;;;18.98;63.31
15489;BME280;7846;48.830;9.116;2022-07-10T06:58:58;98587.84;;;18.94;62.65
15489;BME280;7846;48.830;9.116;2022-07-10T07:01:42;98578.75;;;19.38;61.53
15489;BME280;7846;48.830;9.116;2022-07-10T07:04:27;98587.19;;;19.63;60.61
15489;BME280;7846;48.830;9.116;2022-07-10T07:07:13;98582.47;;;19.37;61.43
15489;BME280;7846;48.830;9.116;2022-07-10T07:09:57;98588.72;;;19.23;62.00
15489;BME280;7846;48.830;9.116;2022-07-10T07:12:41;98581.78;;;20.46;59.57
15489;BME280;7846;48.830;9.116;2022-07-10T07:15:25;98589.78;;;19.56;60.08
15489;BME280;7846;48.830;9.116;2022-07-10T07:18:10;98589.13;;;19.82;60.78
15489;BME280;7846;48.830;9.116;2022-07-10T07:21:02;98596.16;;;19.90;59.54
15489;BME280;7846;48.830;9.116;2022-07-10T07:24:05;98592.34;;;20.13;58.31
15489;BME280;7846;48.830;9.116;2022-07-10T07:26:50;98601.03;;;20.28;57.94
15489;BME280;7846;48.830;9.116;2022-07-10T07:29:34;98605.63;;;20.41;57.58
15489;BME280;7846;48.830;9.116;2022-07-10T07:32:17;98605.25;;;19.96;58.21
15489;BME280;7846;48.830;9.116;2022-07-10T07:35:04;98606.59;;;20.26;57.62
15489;BME280;7846;48.830;9.116;2022-07-10T07:37:49;98601.44;;;19.49;58.46
15489;BME280;7846;48.830;9.116;2022-07-10T07:40:34;98618.19;;;19.36;58.02
15489;BME280;7846;48.830;9.116;2022-07-10T07:43:17;98602.44;;;20.11;56.93
15489;BME280;7846;48.830;9.116;2022-07-10T07:46:01;98601.84;;;19.74;57.45
15489;BME280;7846;48.830;9.116;2022-07-10T07:48:45;98611.09;;;19.78;56.38
15489;BME280;7846;48.830;9.116;2022-07-10T07:51:29;98592.88;;;19.88;56.62
15489;BME280;7846;48.830;9.116;2022-07-10T07:54:13;98594.25;;;20.19;55.44
15489;BME280;7846;48.830;9.116;2022-07-10T07:56:57;98604.56;;;20.35;54.72
15489;BME280;7846;48.830;9.116;2022-07-10T07:59:41;98606.34;;;20.63;54.01
15489;BME280;7846;48.830;9.116;2022-07-10T08:02:25;98599.03;;;19.89;55.52
15489;BME280;7846;48.830;9.116;2022-07-10T08:05:12;98587.25;;;20.18;54.89
15489;BME280;7846;48.830;9.116;2022-07-10T08:07:58;98599.00;;;19.82;55.59
15489;BME280;7846;48.830;9.116;2022-07-10T08:10:44;98589.69;;;20.74;54.46
15489;BME280;7846;48.830;9.116;2022-07-10T08:13:28;98588.88;;;21.20;52.42
15489;BME280;7846;48.830;9.116;2022-07-10T08:16:12;98585.81;;;21.56;51.85
15489;BME280;7846;48.830;9.116;2022-07-10T08:18:56;98593.66;;;21.44;51.66
15489;BME280;7846;48.830;9.116;2022-07-10T08:21:40;98591.16;;;21.16;52.85
15489;BME280;7846;48.830;9.116;2022-07-10T08:24:24;98587.69;;;20.21;54.37
15489;BME280;7846;48.830;9.116;2022-07-10T08:27:08;98590.28;;;20.76;53.23
15489;BME280;7846;48.830;9.116;2022-07-10T08:29:53;98587.69;;;22.20;50.19
15489;BME280;7846;48.830;9.116;2022-07-10T08:32:38;98588.25;;;21.71;50.53
15489;BME280;7846;48.830;9.116;2022-07-10T08:35:23;98581.69;;;21.14;49.89
15489;BME280;7846;48.830;9.116;2022-07-10T08:38:08;98580.22;;;21.24;49.13
15489;BME280;7846;48.830;9.116;2022-07-10T08:40:54;98588.66;;;20.62;51.06
15489;BME280;7846;48.830;9.116;2022-07-10T08:43:44;98578.34;;;20.72;50.67
15489;BME280;7846;48.830;9.116;2022-07-10T08:46:29;98582.34;;;20.21;52.71
15489;BME280;7846;48.830;9.116;2022-07-10T08:49:16;98578.56;;;20.02;52.39
15489;BME280;7846;48.830;9.116;2022-07-10T08:52:04;98571.78;;;20.94;51.00
15489;BME280;7846;48.830;9.116;2022-07-10T08:54:49;98571.41;;;21.37;48.59
15489;BME280;7846;48.830;9.116;2022-07-10T08:57:34;98575.06;;;20.83;49.54
15489;BME280;7846;48.830;9.116;2022-07-10T09:00:18;98577.19;;;21.41;49.32
15489;BME280;7846;48.830;9.116;2022-07-10T09:03:03;98575.13;;;22.08;47.61
15489;BME280;7846;48.830;9.116;2022-07-10T09:05:47;98586.94;;;22.00;47.35
15489;BME280;7846;48.830;9.116;2022-07-10T09:08:32;98573.00;;;23.00;45.75
15489;BME280;7846;48.830;9.116;2022-07-10T09:11:18;98567.03;;;22.91;46.10
15489;BME280;7846;48.830;9.116;2022-07-10T09:14:04;98571.16;;;23.69;45.07
15489;BME280;7846;48.830;9.116;2022-07-10T09:16:51;98580.44;;;22.28;46.28
15489;BME280;7846;48.830;9.116;2022-07-10T09:19:36;98582.38;;;22.01;46.28
15489;BME280;7846;48.830;9.116;2022-07-10T09:22:21;98582.75;;;23.19;45.15
15489;BME280;7846;48.830;9.116;2022-07-10T09:25:12;98594.06;;;22.26;46.15
15489;BME280;7846;48.830;9.116;2022-07-10T09:27:56;98594.50;;;22.16;46.34
15489;BME280;7846;48.830;9.116;2022-07-10T09:30:44;98588.31;;;22.22;46.90
15489;BME280;7846;48.830;9.116;2022-07-10T09:33:29;98578.94;;;23.08;45.14
15489;BME280;7846;48.830;9.116;2022-07-10T09:36:15;98580.56;;;23.34;44.77
15489;BME280;7846;48.830;9.116;2022-07-10T09:39:00;98584.19;;;22.90;44.90
15489;BME280;7846;48.830;9.116;2022-07-10T09:41:44;98594.44;;;22.75;44.50
15489;BME280;7846;48.830;9.116;2022-07-10T09:44:27;98586.56;;;22.41;46.25
15489;BME280;7846;48.830;9.116;2022-07-10T09:47:22;98586.59;;;23.55;43.34
15489;BME280;7846;48.830;9.116;2022-07-10T09:50:28;98579.84;;;23.64;43.60
15489;BME280;7846;48.830;9.116;2022-07-10T09:53:12;98583.69;;;23.31;43.37
15489;BME280;7846;48.830;9.116;2022-07-10T09:56:00;98590.34;;;22.65;45.26
15489;BME280;7846;48.830;9.116;2022-07-10T09:58:45;98597.56;;;21.48;47.56
15489;BME280;7846;48.830;9.116;2022-07-10T10:01:32;98592.59;;;21.59;47.61
15489;BME280;7846;48.830;9.116;2022-07-10T10:04:20;98587.63;;;22.34;46.02
15489;BME280;7846;48.830;9.116;2022-07-10T10:07:09;98581.59;;;23.33;44.58
15489;BME280;7846;48.830;9.116;2022-07-10T10:09:58;98582.75;;;22.62;44.55
15489;BME280;7846;48.830;9.116;2022-07-10T10:12:50;98589.13;;;21.38;46.78
15489;BME280;7846;48.830;9.116;2022-07-10T10:15:36;98576.56;;;20.99;47.87
15489;BME280;7846;48.830;9.116;2022-07-10T10:18:23;98577.25;;;23.14;45.50
15489;BME280;7846;48.830;9.116;2022-07-10T10:21:07;98568.06;;;22.27;46.23
15489;BME280;7846;48.830;9.116;2022-07-10T10:23:53;98579.06;;;22.18;46.45
15489;BME280;7846;48.830;9.116;2022-07-10T10:26:37;98565.72;;;22.43;45.31
15489;BME280;7846;48.830;9.116;2022-07-10T10:29:21;98562.94;;;22.57;45.19
15489;BME280;7846;48.830;9.116;2022-07-10T10:32:07;98573.63;;;21.73;47.53
15489;BME280;7846;48.830;9.116;2022-07-10T10:34:51;98565.63;;;22.12;46.76
15489;BME280;7846;48.830;9.116;2022-07-10T10:37:42;98558.91;;;22.41;45.96
15489;BME280;7846;48.830;9.116;2022-07-10T10:40:32;98556.47;;;23.21;44.85
15489;BME280;7846;48.830;9.116;2022-07-10T10:43:22;98564.53;;;22.64;46.10
15489;BME280;7846;48.830;9.116;2022-07-10T10:46:25;98555.72;;;22.89;44.74
15489;BME280;7846;48.830;9.116;2022-07-10T10:49:09;98544.97;;;22.96;43.88
15489;BME280;7846;48.830;9.116;2022-07-10T10:57:40;98548.59;;;23.26;42.74
15489;BME280;7846;48.830;9.116;2022-07-10T11:00:35;98540.00;;;23.98;43.50
15489;BME280;7846;48.830;9.116;2022-07-10T11:03:23;98555.75;;;23.14;42.95
15489;BME280;7846;48.830;9.116;2022-07-10T11:06:12;98553.31;;;23.06;42.46
15489;BME280;7846;48.830;9.116;2022-07-10T11:09:30;98554.50;;;23.97;40.15
15489;BME280;7846;48.830;9.116;2022-07-10T11:12:14;98557.75;;;23.43;40.26
15489;BME280;7846;48.830;9.116;2022-07-10T11:15:00;98562.06;;;22.69;42.15
15489;BME280;7846;48.830;9.116;2022-07-10T11:17:52;98559.41;;;22.63;42.22
15489;BME280;7846;48.830;9.116;2022-07-10T11:20:41;98560.88;;;23.40;40.71
15489;BME280;7846;48.830;9.116;2022-07-10T11:26:55;98556.63;;;22.44;42.51
15489;BME280;7846;48.830;9.116;2022-07-10T11:29:42;98571.53;;;21.75;43.95
15489;BME280;7846;48.830;9.116;2022-07-10T11:32:31;98552.44;;;22.55;42.78
15489;BME280;7846;48.830;9.116;2022-07-10T11:35:18;98541.97;;;22.72;41.88
15489;BME280;7846;48.830;9.116;2022-07-10T11:38:03;98545.75;;;23.21;41.17
15489;BME280;7846;48.830;9.116;2022-07-10T11:40:47;98535.06;;;23.95;42.11
15489;BME280;7846;48.830;9.116;2022-07-10T11:43:31;98534.00;;;24.14;40.42
15489;BME280;7846;48.830;9.116;2022-07-10T11:46:16;98547.22;;;23.17;40.30
15489;BME280;7846;48.830;9.116;2022-07-10T11:49:04;98542.16;;;22.45;41.71
15489;BME280;7846;48.830;9.116;2022-07-10T11:51:49;98547.50;;;23.34;40.52
15489;BME280;7846;48.830;9.116;2022-07-10T11:54:33;98536.06;;;22.95;40.45
15489;BME280;7846;48.830;9.116;2022-07-10T11:57:17;98539.09;;;23.49;38.24
15489;BME280;7846;48.830;9.116;2022-07-10T12:00:04;98536.09;;;24.84;37.43
15489;BME280;7846;48.830;9.116;2022-07-10T12:02:51;98543.97;;;23.77;38.93
15489;BME280;7846;48.830;9.116;2022-07-10T12:05:37;98545.75;;;23.21;40.48
15489;BME280;7846;48.830;9.116;2022-07-10T12:08:22;98539.88;;;23.74;39.61
15489;BME280;7846;48.830;9.116;2022-07-10T12:11:13;98539.91;;;23.49;38.14
15489;BME280;7846;48.830;9.116;2022-07-10T12:16:56;98534.53;;;24.04;36.68
15489;BME280;7846;48.830;9.116;2022-07-10T12:19:42;98530.09;;;23.18;38.33
15489;BME280;7846;48.830;9.116;2022-07-10T12:22:26;98544.19;;;23.94;38.14
15489;BME280;7846;48.830;9.116;2022-07-10T12:25:10;98543.56;;;23.11;39.63
15489;BME280;7846;48.830;9.116;2022-07-10T12:27:58;98538.69;;;23.02;39.23
15489;BME280;7846;48.830;9.116;2022-07-10T12:30:46;98540.72;;;25.77;35.29
15489;BME280;7846;48.830;9.116;2022-07-10T12:33:31;98544.91;;;25.73;34.75
15489;BME280;7846;48.830;9.116;2022-07-10T12:36:16;98550.03;;;25.23;35.42
15489;BME280;7846;48.830;9.116;2022-07-10T12:39:00;98551.22;;;26.71;33.46
15489;BME280;7846;48.830;9.116;2022-07-10T12:44:45;98552.97;;;26.49;33.73
15489;BME280;7846;48.830;9.116;2022-07-10T12:47:43;98549.63;;;25.90;34.69
15489;BME280;7846;48.830;9.116;2022-07-10T12:50:28;98557.41;;;26.43;33.35
15489;BME280;7846;48.830;9.116;2022-07-10T12:53:12;98554.75;;;26.89;32.24
15489;BME280;7846;48.830;9.116;2022-07-10T12:56:00;98542.94;;;29.52;29.51
15489;BME280;7846;48.830;9.116;2022-07-10T12:58:44;98554.84;;;31.22;27.92
15489;BME280;7846;48.830;9.116;2022-07-10T13:01:39;98547.28;;;28.83;30.58
15489;BME280;7846;48.830;9.116;2022-07-10T13:04:24;98544.28;;;30.07;29.15
15489;BME280;7846;48.830;9.116;2022-07-10T13:07:14;98553.78;;;29.52;29.70
15489;BME280;7846;48.830;9.116;2022-07-10T13:10:03;98541.75;;;28.19;31.27
15489;BME280;7846;48.830;9.116;2022-07-10T13:12:48;98538.25;;;29.42;29.26
15489;BME280;7846;48.830;9.116;2022-07-10T13:15:32;98552.63;;;30.63;28.58
15489;BME280;7846;48.830;9.116;2022-07-10T13:18:26;98542.88;;;26.90;33.18
15489;BME280;7846;48.830;9.116;2022-07-10T13:21:11;98540.06;;;26.39;33.39
15489;BME280;7846;48.830;9.116;2022-07-10T13:23:56;98531.41;;;26.37;33.64
15489;BME280;7846;48.830;9.116;2022-07-10T13:26:40;98531.66;;;29.28;29.76
15489;BME280;7846;48.830;9.116;2022-07-10T13:29:27;98536.19;;;27.26;32.27
15489;BME280;7846;48.830;9.116;2022-07-10T13:32:11;98541.13;;;26.84;33.25
15489;BME280;7846;48.830;9.116;2022-07-10T13:34:55;98543.69;;;26.90;32.75
15489;BME280;7846;48.830;9.116;2022-07-10T13:37:39;98533.31;;;31.46;27.45
15489;BME280;7846;48.830;9.116;2022-07-10T13:40:23;98540.22;;;28.28;31.09
15489;BME280;7846;48.830;9.116;2022-07-10T13:43:07;98541.97;;;28.39;30.76
15489;BME280;7846;48.830;9.116;2022-07-10T13:45:53;98543.59;;;27.53;32.09
15489;BME280;7846;48.830;9.116;2022-07-10T13:48:41;98545.94;;;26.48;33.98
15489;BME280;7846;48.830;9.116;2022-07-10T13:51:25;98531.88;;;27.86;31.70
15489;BME280;7846;48.830;9.116;2022-07-10T13:54:09;98538.94;;;29.59;30.23
15489;BME280;7846;48.830;9.116;2022-07-10T13:56:53;98546.06;;;27.37;31.74
15489;BME280;7846;48.830;9.116;2022-07-10T13:59:38;98541.34;;;28.32;31.74
15489;BME280;7846;48.830;9.116;2022-07-10T14:02:25;98548.69;;;25.96;34.98
15489;BME280;7846;48.830;9.116;2022-07-10T14:05:10;98529.59;;;27.39;32.07
15489;BME280;7846;48.830;9.116;2022-07-10T14:07:54;98536.53;;;25.46;34.48
15489;BME280;7846;48.830;9.116;2022-07-10T14:10:38;98549.13;;;24.45;37.04
15489;BME280;7846;48.830;9.116;2022-07-10T14:13:23;98543.28;;;23.63;37.74
15489;BME280;7846;48.830;9.116;2022-07-10T14:16:07;98533.44;;;24.24;37.13
15489;BME280;7846;48.830;9.116;2022-07-10T14:18:51;98535.72;;;25.10;35.83
15489;BME280;7846;48.830;9.116;2022-07-10T14:21:35;98542.03;;;25.40;35.26
15489;BME280;7846;48.830;9.116;2022-07-10T14:24:19;98525.00;;;27.06;33.67
15489;BME280;7846;48.830;9.116;2022-07-10T14:27:03;98530.09;;;27.02;33.29
15489;BME280;7846;48.830;9.116;2022-07-10T14:29:47;98532.00;;;26.27;33.84
15489;BME280;7846;48.830;9.116;2022-07-10T14:32:31;98532.09;;;28.06;31.77
15489;BME280;7846;48.830;9.116;2022-07-10T14:35:16;98532.66;;;26.46;33.41
15489;BME280;7846;48.830;9.116;2022-07-10T14:38:01;98530.66;;;26.42;33.54
15489;BME280;7846;48.830;9.116;2022-07-10T14:40:45;98541.69;;;26.69;32.50
15489;BME280;7846;48.830;9.116;2022-07-10T14:43:29;98527.41;;;28.18;31.64
15489;BME280;7846;48.830;9.116;2022-07-10T14:46:17;98539.28;;;29.36;29.61
15489;BME280;7846;48.830;9.116;2022-07-10T14:49:01;98534.06;;;28.11;31.53
15489;BME280;7846;48.830;9.116;2022-07-10T14:51:45;98528.25;;;30.05;28.89
15489;BME280;7846;48.830;9.116;2022-07-10T14:54:29;98533.00;;;28.12;31.09
15489;BME280;7846;48.830;9.116;2022-07-10T14:57:13;98535.00;;;27.39;31.79
15489;BME280;7846;48.830;9.116;2022-07-10T14:59:56;98532.88;;;27.80;31.43
15489;BME280;7846;48.830;9.116;2022-07-10T15:02:40;98530.19;;;29.52;29.14